Time;durP1;ratioP1;P1;durP2;ratioP2;P2;SDS_P1;SDS_P2;PMS_P1;PMS_P2;Temp;Humidity;BMP_temperature;BMP_pressure;BME280_temperature;BME280_humidity;BME280_pressure;Samples;Min_cycle;Max_cycle;Signal;HPM_P1;HPM_P2
2022/01/30 00:01:18;;;;;;;3.42;1.77;;;;;;;7.61;73.30;102042.34;5228605;28;20017;-85
2022/01/30 00:03:52;;;;;;;4.28;1.65;;;;;;;7.56;73.38;102056.22;5190164;28;20092;-83
2022/01/30 00:06:23;;;;;;;;;;;;;;;7.59;73.96;102057.13;5192412;28;20029;-83
2022/01/30 00:08:56;;;;;;;2.45;1.60;;;;;;;7.60;73.30;102056.25;5241321;28;19920;-82
2022/01/30 00:11:33;;;;;;;0.47;0.47;;;;;;;7.48;72.07;102052.69;5215953;28;20049;-83
2022/01/30 00:14:35;;;;;;;1.95;1.10;;;;;;;7.40;72.83;102067.41;5196438;28;20033;-83
2022/01/30 00:17:16;;;;;;;1.33;1.25;;;;;;;7.54;73.80;102057.09;5235897;28;20055;-82
2022/01/30 00:19:58;;;;;;;0.50;0.50;;;;;;;7.54;73.85;102064.91;5226165;28;20033;-81
2022/01/30 00:25:09;;;;;;;0.65;0.65;;;;;;;7.43;72.94;102064.84;5241847;28;20021;-83
2022/01/30 00:28:08;;;;;;;0.93;0.93;;;;;;;7.48;72.16;102062.28;5204663;28;20044;-81
2022/01/30 00:30:40;;;;;;;0.68;0.68;;;;;;;7.52;72.85;102070.16;5185089;28;20090;-84
2022/01/30 00:33:12;;;;;;;0.50;0.50;;;;;;;7.52;73.67;102067.53;5208255;28;20041;-83
2022/01/30 00:35:44;;;;;;;1.25;1.15;;;;;;;7.55;73.87;102067.56;5223136;28;20043;-83
2022/01/30 00:38:18;;;;;;;0.40;0.40;;;;;;;7.46;73.41;102072.72;5186839;28;20034;-83
2022/01/30 00:40:51;;;;;;;2.38;2.28;;;;;;;7.54;73.63;102075.38;5223355;28;20032;-82
2022/01/30 00:43:25;;;;;;;0.40;0.40;;;;;;;7.54;73.64;102076.25;5157116;28;20127;-83
2022/01/30 00:45:58;;;;;;;0.50;0.50;;;;;;;7.51;73.29;102073.63;5196378;28;20495;-83
2022/01/30 00:48:41;;;;;;;5.55;1.70;;;;;;;7.53;73.36;102074.50;5213037;28;20434;-82
2022/01/30 00:51:19;;;;;;;5.10;1.20;;;;;;;7.56;72.96;102087.56;5203954;28;20051;-84
2022/01/30 00:53:52;;;;;;;1.00;1.00;;;;;;;7.49;74.05;102090.16;5210904;28;20037;-82
2022/01/30 00:56:23;;;;;;;0.88;0.70;;;;;;;7.53;73.21;102102.34;5188201;28;20040;-82
2022/01/30 00:59:02;;;;;;;1.65;1.52;;;;;;;7.46;73.91;102105.78;5192928;28;20036;-82
2022/01/30 01:01:45;;;;;;;0.70;0.70;;;;;;;7.52;73.28;102101.47;5195391;28;20025;-83
2022/01/30 01:05:01;;;;;;;0.40;0.40;;;;;;;7.43;73.69;102100.56;5152742;28;20384;-82
2022/01/30 01:07:52;;;;;;;0.60;0.60;;;;;;;7.42;73.33;102091.81;5214040;28;20032;-84
2022/01/30 01:13:53;;;;;;;1.30;1.30;;;;;;;7.44;74.24;102112.75;5211064;28;20048;-82
2022/01/30 01:25:11;;;;;;;0.95;0.95;;;;;;;7.03;73.22;102117.56;5177411;28;20044;-84
2022/01/30 01:27:51;;;;;;;;;;;;;;;;;;;;;
2022/01/30 01:30:34;;;;;;;;;;;;;;;;;;;;;
2022/01/30 01:33:12;;;;;;;1.90;1.75;;;;;;;7.13;74.00;102118.56;5223374;28;20170;-84
2022/01/30 01:35:45;;;;;;;0.50;0.50;;;;;;;7.23;73.97;102115.16;5185806;28;20033;-83
2022/01/30 01:38:31;;;;;;;0.82;0.82;;;;;;;7.03;72.51;102114.97;5222190;28;20037;-82
2022/01/30 01:41:05;;;;;;;0.55;0.55;;;;;;;6.92;71.78;102109.63;5198599;28;20033;-84
2022/01/30 01:43:40;;;;;;;4.80;1.95;;;;;;;6.82;73.37;102123.44;5177450;28;20056;-84
2022/01/30 01:46:35;;;;;;;1.77;1.25;;;;;;;6.96;73.62;102122.72;5153393;28;20045;-83
2022/01/30 01:49:18;;;;;;;0.60;0.60;;;;;;;7.05;73.05;102115.00;5141912;28;20515;-85
2022/01/30 01:55:01;;;;;;;11.02;1.27;;;;;;;6.96;73.15;102122.72;5199531;28;20037;-82
2022/01/30 01:57:55;;;;;;;0.93;0.93;;;;;;;6.76;72.22;102118.16;5218415;28;20048;-82
2022/01/30 02:00:28;;;;;;;0.80;0.80;;;;;;;6.74;73.95;102105.13;5202457;28;20025;-84
2022/01/30 02:03:11;;;;;;;0.98;0.98;;;;;;;6.80;73.76;102104.31;5190655;28;20072;-82
2022/01/30 02:05:47;;;;;;;0.90;0.90;;;;;;;6.72;73.07;102108.56;5219673;28;20025;-82
2022/01/30 02:13:57;;;;;;;18.63;3.95;;;;;;;6.50;72.75;102100.47;5235111;28;20044;-81
2022/01/30 02:28:00;;;;;;;12.55;1.60;;;;;;;6.39;73.17;102113.38;5197238;28;20045;-82
2022/01/30 02:30:37;;;;;;;5.50;2.15;;;;;;;6.49;74.03;102130.00;5192166;28;20041;-82
2022/01/30 02:33:13;;;;;;;2.17;1.60;;;;;;;6.70;73.39;102123.31;5192165;28;20604;-82
2022/01/30 02:35:54;;;;;;;0.60;0.60;;;;;;;6.49;73.20;102130.00;5244596;28;20565;-82
2022/01/30 02:38:25;;;;;;;0.70;0.70;;;;;;;6.39;73.38;102128.16;5210502;28;20051;-82
2022/01/30 02:41:04;;;;;;;0.70;0.70;;;;;;;6.51;73.29;102133.53;5219235;28;20483;-82
2022/01/30 02:43:53;;;;;;;0.60;0.60;;;;;;;6.53;73.76;102144.84;5229492;28;20037;-84
2022/01/30 02:46:31;;;;;;;0.77;0.70;;;;;;;6.23;73.87;102148.81;5185082;28;20040;-83
2022/01/30 02:51:58;;;;;;;0.40;0.40;;;;;;;6.38;73.52;102142.06;5241378;28;20028;-82
2022/01/30 02:54:30;;;;;;;1.17;1.13;;;;;;;6.52;73.52;102155.28;5210043;28;20037;-82
2022/01/30 02:57:01;;;;;;;0.50;0.50;;;;;;;6.46;73.18;102156.94;5207139;28;20041;-82
2022/01/30 02:59:37;;;;;;;0.70;0.70;;;;;;;6.27;73.42;102158.41;5218745;28;20097;-82
2022/01/30 03:02:25;;;;;;;0.60;0.60;;;;;;;6.18;72.98;102150.47;5188150;28;20054;-82
2022/01/30 03:04:55;;;;;;;1.70;1.60;;;;;;;6.35;74.38;102155.03;5228916;28;20081;-84
2022/01/30 03:07:55;;;;;;;1.48;1.38;;;;;;;6.43;73.65;102156.00;5208292;28;20437;-82
2022/01/30 03:10:28;;;;;;;0.95;0.95;;;;;;;6.23;73.86;102164.47;5206863;28;20111;-85
2022/01/30 03:13:03;;;;;;;0.68;0.68;;;;;;;6.15;73.20;102160.88;5190908;28;20093;-82
2022/01/30 03:15:35;;;;;;;0.93;0.93;;;;;;;6.21;74.21;102160.94;5197590;28;20033;-83
2022/01/30 03:18:08;;;;;;;2.47;1.58;;;;;;;6.29;73.39;102167.13;5188030;28;20046;-84
2022/01/30 03:20:41;;;;;;;3.55;2.30;;;;;;;6.37;73.08;102177.66;5207213;28;20052;-83
2022/01/30 03:23:12;;;;;;;0.40;0.40;;;;;;;6.50;73.60;102176.09;5188873;28;20036;-83
2022/01/30 03:25:48;;;;;;;0.88;0.88;;;;;;;6.32;73.03;102181.09;5225185;28;20025;-82
2022/01/30 03:28:18;;;;;;;1.02;0.95;;;;;;;6.30;73.70;102181.94;5207320;28;20064;-82
2022/01/30 03:31:20;;;;;;;1.38;1.38;;;;;;;6.27;73.74;102173.19;5245637;28;20117;-82
2022/01/30 03:33:51;;;;;;;6.18;1.20;;;;;;;6.40;74.04;102169.88;5186979;28;20052;-82
2022/01/30 03:36:21;;;;;;;0.40;0.40;;;;;;;5.99;73.25;102168.44;5211048;28;20102;-84
2022/01/30 03:38:52;;;;;;;0.60;0.60;;;;;;;6.18;73.92;102163.50;5185790;28;20564;-82
2022/01/30 03:41:23;;;;;;;0.88;0.88;;;;;;;6.15;74.18;102163.47;5198214;28;20057;-82
2022/01/30 03:43:57;;;;;;;1.05;1.05;;;;;;;6.21;73.95;102163.56;5236372;28;20045;-82
2022/01/30 03:46:48;;;;;;;0.50;0.50;;;;;;;6.26;74.20;102164.47;5207399;28;20068;-82
2022/01/30 03:49:19;;;;;;;0.30;0.30;;;;;;;6.33;73.42;102157.63;5220429;28;20404;-82
2022/01/30 03:51:49;;;;;;;0.40;0.40;;;;;;;6.06;73.95;102172.00;5194412;28;20029;-81
2022/01/30 03:54:20;;;;;;;1.25;1.25;;;;;;;6.04;74.03;102167.63;5193329;28;20067;-84
2022/01/30 03:56:51;;;;;;;0.70;0.70;;;;;;;6.09;73.81;102173.78;5211125;28;20037;-85
2022/01/30 03:59:30;;;;;;;0.95;0.95;;;;;;;6.16;74.00;102180.84;5212498;28;20036;-84
2022/01/30 04:02:01;;;;;;;0.40;0.40;;;;;;;6.10;73.96;102186.84;5255135;28;20470;-83
2022/01/30 04:04:34;;;;;;;0.50;0.50;;;;;;;6.21;74.03;102184.41;5193370;28;20061;-82
2022/01/30 04:07:16;;;;;;;1.30;1.27;;;;;;;6.06;73.69;102189.38;5190862;28;20040;-83
2022/01/30 04:09:47;;;;;;;21.75;3.40;;;;;;;5.86;74.50;102189.91;5193132;28;20036;-82
2022/01/30 04:12:18;;;;;;;0.50;0.50;;;;;;;6.05;74.47;102190.25;5215558;28;20101;-83
2022/01/30 04:14:52;;;;;;;9.45;2.72;;;;;;;5.81;74.59;102196.78;5197039;28;20053;-85
2022/01/30 04:17:28;;;;;;;0.40;0.40;;;;;;;5.76;75.18;102199.31;5225766;28;20021;-83
2022/01/30 04:20:12;;;;;;;0.50;0.50;;;;;;;5.80;74.92;102190.69;5230434;28;20102;-82
2022/01/30 04:22:43;;;;;;;7.30;2.03;;;;;;;5.82;74.92;102188.13;5186453;28;20640;-82
2022/01/30 04:25:16;;;;;;;1.40;1.30;;;;;;;5.79;74.93;102195.88;5204800;28;20119;-82
2022/01/30 04:27:50;;;;;;;0.40;0.40;;;;;;;5.87;74.58;102194.28;5214113;28;20642;-84
2022/01/30 04:30:21;;;;;;;0.63;0.63;;;;;;;5.57;74.50;102198.13;5198600;28;20032;-85
2022/01/30 04:32:55;;;;;;;1.00;1.00;;;;;;;5.68;74.65;102196.56;5183423;28;20543;-81
2022/01/30 04:35:30;;;;;;;0.93;0.93;;;;;;;5.66;74.96;102193.03;5209396;28;20025;-83
2022/01/30 04:52:19;;;;;;;1.10;1.10;;;;;;;5.83;75.11;102211.59;5206958;28;20086;-82
2022/01/30 05:06:11;;;;;;;1.65;1.02;;;;;;;5.82;75.29;102207.22;5240186;28;20034;-85
2022/01/30 05:08:44;;;;;;;1.02;1.02;;;;;;;5.80;75.52;102210.66;5181607;28;20037;-81
2022/01/30 05:11:17;;;;;;;0.47;0.47;;;;;;;5.71;75.17;102208.75;5214775;28;20025;-82
2022/01/30 05:13:51;;;;;;;4.63;1.75;;;;;;;5.90;75.14;102225.59;5195125;28;20041;-83
2022/01/30 05:16:31;;;;;;;9.60;3.35;;;;;;;5.97;74.60;102221.34;5192629;28;20060;-83
2022/01/30 05:19:02;;;;;;;0.40;0.40;;;;;;;5.94;74.80;102231.72;5224127;28;20041;-82
2022/01/30 05:21:35;;;;;;;6.60;2.03;;;;;;;5.90;74.98;102223.00;5184974;28;20037;-82
2022/01/30 05:24:10;;;;;;;0.70;0.68;;;;;;;6.01;74.78;102233.63;5219762;28;20141;-82
2022/01/30 05:26:49;;;;;;;0.50;0.50;;;;;;;5.82;74.35;102240.22;5205381;28;20063;-83
2022/01/30 05:29:20;;;;;;;0.50;0.50;;;;;;;5.85;74.96;102248.06;5202555;28;20107;-81
2022/01/30 05:31:51;;;;;;;1.98;1.88;;;;;;;5.84;74.15;102254.13;5205930;28;20025;-82
2022/01/30 05:34:22;;;;;;;1.63;1.40;;;;;;;5.63;74.29;102250.31;5204447;28;20040;-81
2022/01/30 05:36:56;;;;;;;0.50;0.50;;;;;;;5.82;75.41;102253.25;5217785;28;20096;-84
2022/01/30 05:39:26;;;;;;;7.43;2.53;;;;;;;5.92;74.70;102256.88;5188175;28;20045;-81
2022/01/30 05:41:57;;;;;;;0.73;0.73;;;;;;;5.91;74.50;102249.91;5200071;28;20025;-83
2022/01/30 05:44:43;;;;;;;0.60;0.60;;;;;;;5.88;73.98;102250.75;5211786;28;20037;-83
2022/01/30 05:47:22;;;;;;;0.40;0.40;;;;;;;5.86;74.14;102257.63;5209213;28;20109;-84
2022/01/30 05:49:54;;;;;;;15.20;1.85;;;;;;;5.71;74.50;102259.97;5222445;28;20045;-83
2022/01/30 05:52:25;;;;;;;1.25;1.25;;;;;;;5.81;74.65;102254.09;5201006;28;20039;-85
2022/01/30 05:54:56;;;;;;;0.30;0.30;;;;;;;5.62;73.71;102264.16;5190969;28;20403;-84
2022/01/30 05:57:29;;;;;;;0.75;0.75;;;;;;;5.66;74.32;102255.56;5200446;28;20051;-83
2022/01/30 06:00:00;;;;;;;1.48;1.40;;;;;;;5.72;75.00;102256.53;5209602;28;20017;-83
2022/01/30 06:02:32;;;;;;;4.78;2.30;;;;;;;5.58;73.99;102264.09;5205977;28;20037;-83
2022/01/30 06:05:08;;;;;;;0.77;0.77;;;;;;;5.57;74.82;102265.81;5193588;28;20049;-83
2022/01/30 06:07:56;;;;;;;1.00;0.95;;;;;;;5.74;74.35;102257.44;5223544;28;20081;-82
2022/01/30 06:10:27;;;;;;;0.50;0.50;;;;;;;5.53;74.36;102263.13;5214798;28;20033;-83
2022/01/30 06:12:58;;;;;;;1.35;0.82;;;;;;;5.50;73.80;102269.13;5183653;28;20044;-83
2022/01/30 06:15:46;;;;;;;2.45;1.50;;;;;;;5.32;73.89;102270.56;5188373;28;20037;-83
2022/01/30 06:18:21;;;;;;;0.77;0.77;;;;;;;5.55;74.52;102264.91;5202214;28;20041;-83
2022/01/30 06:20:52;;;;;;;3.67;1.25;;;;;;;5.56;74.08;102271.88;5196692;28;20145;-83
2022/01/30 06:23:26;;;;;;;0.88;0.88;;;;;;;5.50;73.78;102279.56;5219655;28;20060;-83
2022/01/30 06:25:57;;;;;;;;;;;;;;;5.56;73.99;102287.50;5214251;28;20106;-83
2022/01/30 06:28:27;;;;;;;0.40;0.40;;;;;;;5.54;74.01;102290.94;5196299;28;19967;-83
2022/01/30 06:30:58;;;;;;;0.88;0.88;;;;;;;5.56;73.49;102294.41;5212920;28;20036;-82
2022/01/30 06:33:28;;;;;;;2.17;2.05;;;;;;;5.56;74.32;102300.53;5218244;28;20039;-84
2022/01/30 06:35:59;;;;;;;27.10;1.63;;;;;;;5.61;73.78;102306.69;5211555;28;20044;-82
2022/01/30 06:38:29;;;;;;;0.60;0.60;;;;;;;5.61;73.94;102318.84;5186366;28;20033;-82
2022/01/30 06:41:00;;;;;;;0.50;0.50;;;;;;;5.55;73.79;102314.38;5228123;28;20362;-80
2022/01/30 06:43:31;;;;;;;0.47;0.47;;;;;;;5.61;74.34;102319.69;5189697;28;20078;-82
2022/01/30 06:46:04;;;;;;;8.48;1.67;;;;;;;5.40;74.07;102317.56;5212967;28;20499;-82
2022/01/30 06:48:35;;;;;;;0.93;0.93;;;;;;;5.36;74.22;102319.22;5207059;28;20045;-80
2022/01/30 06:51:05;;;;;;;0.40;0.40;;;;;;;5.40;73.67;102325.38;5202376;28;20452;-81
2022/01/30 06:53:36;;;;;;;0.50;0.50;;;;;;;5.42;74.02;102326.28;5189006;28;20044;-82
2022/01/30 06:59:06;;;;;;;1.05;1.05;;;;;;;5.44;74.14;102332.41;5196909;28;20180;-81
2022/01/30 07:02:16;;;;;;;1.20;0.85;;;;;;;5.28;73.44;102330.34;5191874;28;20086;-83
2022/01/30 07:05:05;;;;;;;;;;;;;;;5.45;73.76;102333.25;5206090;28;20558;-83
2022/01/30 07:07:43;;;;;;;1.05;1.05;;;;;;;5.53;74.00;102342.09;5220955;28;19952;-80
2022/01/30 07:10:15;;;;;;;0.82;0.82;;;;;;;5.41;74.10;102341.88;5241355;28;20032;-80
2022/01/30 07:12:46;;;;;;;1.33;1.25;;;;;;;5.54;73.22;102349.06;5216442;28;20029;-80
2022/01/30 07:15:18;;;;;;;4.72;2.05;;;;;;;5.57;73.95;102343.94;5223863;28;20029;-79
2022/01/30 07:17:48;;;;;;;0.50;0.50;;;;;;;5.51;74.55;102343.78;5239638;28;20066;-81
2022/01/30 07:20:19;;;;;;;0.55;0.55;;;;;;;5.54;74.44;102348.22;5210786;28;20029;-80
2022/01/30 07:22:49;;;;;;;1.77;1.67;;;;;;;5.39;74.08;102349.63;5218496;28;20075;-81
2022/01/30 07:25:20;;;;;;;1.20;1.20;;;;;;;5.35;74.48;102353.91;5208466;28;20091;-82
2022/01/30 07:27:51;;;;;;;1.85;1.38;;;;;;;5.39;74.26;102353.97;5223280;28;20033;-82
2022/01/30 07:30:26;;;;;;;1.08;1.00;;;;;;;5.39;73.88;102351.38;5189689;28;20040;-82
2022/01/30 07:32:59;;;;;;;0.40;0.40;;;;;;;5.55;74.27;102356.03;5258389;28;20092;-82
2022/01/30 07:35:34;;;;;;;0.40;0.40;;;;;;;5.50;73.58;102357.66;5194898;28;20076;-81
2022/01/30 07:38:04;;;;;;;5.15;1.73;;;;;;;5.40;73.82;102367.00;5183323;28;20052;-82
2022/01/30 07:40:37;;;;;;;1.50;1.40;;;;;;;5.52;73.80;102366.38;5214690;28;20673;-83
2022/01/30 07:43:10;;;;;;;0.50;0.50;;;;;;;5.56;74.04;102372.53;5219450;28;20045;-81
2022/01/30 07:45:41;;;;;;;2.08;1.98;;;;;;;5.61;74.07;102383.94;5192908;28;20041;-81
2022/01/30 07:48:12;;;;;;;0.65;0.65;;;;;;;5.59;74.19;102378.69;5209645;28;20777;-82
2022/01/30 07:50:42;;;;;;;2.90;1.67;;;;;;;5.35;73.84;102382.53;5204131;28;20033;-82
2022/01/30 07:53:13;;;;;;;0.55;0.55;;;;;;;5.34;74.34;102388.59;5175458;28;20759;-81
2022/01/30 07:58:52;;;;;;;3.38;2.15;;;;;;;5.48;74.28;102386.28;5161334;28;20045;-83
2022/01/30 08:01:33;;;;;;;;;;;;;;;5.29;73.88;102389.34;5211174;28;20040;-81
2022/01/30 08:04:16;;;;;;;0.40;0.40;;;;;;;5.40;72.98;102392.19;5211438;28;19921;-83
2022/01/30 08:06:54;;;;;;;1.05;1.05;;;;;;;5.50;73.91;102388.91;5184995;28;20044;-83
2022/01/30 08:09:25;;;;;;;1.42;1.33;;;;;;;5.33;73.53;102392.03;5193977;28;20507;-82
2022/01/30 08:12:06;;;;;;;2.50;2.30;;;;;;;5.43;73.94;102394.81;5216723;28;20036;-82
2022/01/30 08:14:40;;;;;;;1.40;1.23;;;;;;;5.16;74.59;102396.00;5180910;28;20045;-82
2022/01/30 08:17:18;;;;;;;0.40;0.40;;;;;;;5.34;74.02;102401.59;5234802;28;20277;-82
2022/01/30 08:20:18;;;;;;;0.40;0.40;;;;;;;5.53;73.40;102408.94;5197560;28;20659;-82
2022/01/30 08:22:51;;;;;;;0.55;0.55;;;;;;;5.47;74.34;102402.75;5168881;28;20044;-81
2022/01/30 08:25:24;;;;;;;1.05;1.05;;;;;;;5.51;74.44;102406.28;5202206;28;20133;-82
2022/01/30 08:27:55;;;;;;;0.80;0.80;;;;;;;5.61;73.98;102412.59;5223262;28;20060;-82
2022/01/30 08:30:28;;;;;;;0.43;0.43;;;;;;;5.59;74.35;102420.34;5233875;28;20025;-82
2022/01/30 08:33:09;;;;;;;0.40;0.40;;;;;;;5.69;74.02;102416.22;5189248;28;20053;-82
2022/01/30 08:36:12;;;;;;;0.93;0.93;;;;;;;5.73;74.30;102422.38;5189184;28;20051;-82
2022/01/30 08:38:46;;;;;;;0.63;0.63;;;;;;;5.63;73.70;102426.50;5202082;28;20117;-83
2022/01/30 08:41:36;;;;;;;1.48;1.15;;;;;;;5.68;73.92;102417.94;5215812;28;20025;-83
2022/01/30 08:44:27;;;;;;;0.70;0.70;;;;;;;5.65;73.96;102424.81;5238530;28;20036;-83
2022/01/30 08:46:58;;;;;;;2.10;1.40;;;;;;;5.63;73.79;102429.09;5221641;28;20098;-81
2022/01/30 08:49:31;;;;;;;0.65;0.65;;;;;;;5.74;73.76;102426.75;5173828;28;20054;-82
2022/01/30 08:52:26;;;;;;;0.70;0.70;;;;;;;5.74;73.27;102425.00;5194359;28;20078;-83
2022/01/30 08:55:26;;;;;;;;;;;;;;;;;;;;;
2022/01/30 08:57:57;;;;;;;1.90;1.73;;;;;;;5.65;73.15;102425.72;5181411;28;20430;-82
2022/01/30 09:00:49;;;;;;;0.50;0.50;;;;;;;5.57;73.18;102411.66;5196225;28;20036;-83
2022/01/30 09:03:22;;;;;;;0.95;0.95;;;;;;;5.66;73.83;102419.63;5173645;28;20048;-83
2022/01/30 09:06:36;;;;;;;;;;;;;;;;;;;;;
2022/01/30 09:09:50;;;;;;;1.00;1.00;;;;;;;5.78;73.61;102424.22;5152910;28;20057;-83
2022/01/30 09:12:35;;;;;;;0.43;0.43;;;;;;;5.82;73.79;102431.25;5153328;28;20069;-85
2022/01/30 09:15:20;;;;;;;;;;;;;;;;;;;;;
2022/01/30 09:18:01;;;;;;;1.75;0.82;;;;;;;5.65;73.81;102435.22;5149511;28;20091;-83
2022/01/30 09:20:32;;;;;;;0.88;0.88;;;;;;;5.76;73.59;102441.53;5225213;28;20025;-84
2022/01/30 09:23:21;;;;;;;1.67;1.30;;;;;;;5.76;73.91;102445.84;5194179;28;20491;-83
2022/01/30 09:26:18;;;;;;;0.65;0.65;;;;;;;5.84;73.34;102449.50;5230529;28;20039;-82
2022/01/30 09:29:30;;;;;;;0.90;0.90;;;;;;;5.65;73.03;102438.72;5189751;28;20037;-83
2022/01/30 09:32:17;;;;;;;0.88;0.88;;;;;;;5.76;73.69;102443.25;5197360;28;20116;-83
2022/01/30 09:34:58;;;;;;;22.95;1.25;;;;;;;5.80;73.16;102445.09;5219658;28;20045;-83
2022/01/30 09:37:31;;;;;;;1.27;1.17;;;;;;;5.84;73.62;102446.91;5168396;28;20032;-83
2022/01/30 09:40:20;;;;;;;0.40;0.40;;;;;;;5.78;72.86;102446.78;5176173;28;20120;-83
2022/01/30 09:42:52;;;;;;;0.40;0.40;;;;;;;6.03;73.22;102453.41;5190407;28;20037;-82
2022/01/30 09:45:24;;;;;;;0.60;0.60;;;;;;;5.87;72.88;102441.75;5184659;28;20128;-82
2022/01/30 09:47:58;;;;;;;0.60;0.60;;;;;;;6.03;73.28;102447.31;5194731;28;20037;-82
2022/01/30 09:50:32;;;;;;;2.20;1.10;;;;;;;6.12;73.38;102443.13;5206119;28;20510;-83
2022/01/30 09:53:11;;;;;;;1.48;1.42;;;;;;;6.11;73.28;102441.41;5236129;28;20561;-83
2022/01/30 09:55:44;;;;;;;5.13;2.15;;;;;;;6.14;72.42;102432.75;5203449;28;20505;-82
2022/01/30 09:58:15;;;;;;;1.83;1.05;;;;;;;6.09;71.87;102427.47;5219279;28;20047;-84
2022/01/30 10:00:56;;;;;;;2.50;2.28;;;;;;;6.14;71.82;102431.03;5198695;28;20056;-83
2022/01/30 10:03:52;;;;;;;3.72;1.58;;;;;;;6.12;71.76;102431.84;5203301;28;20077;-83
2022/01/30 10:07:12;;;;;;;0.40;0.40;;;;;;;6.08;71.01;102427.41;5200995;28;20025;-81
2022/01/30 10:09:50;;;;;;;1.00;1.00;;;;;;;6.21;72.40;102416.38;5209400;28;20076;-81
2022/01/30 10:12:28;;;;;;;2.55;2.17;;;;;;;6.30;72.24;102426.09;5207106;28;20037;-81
2022/01/30 10:15:31;;;;;;;0.68;0.68;;;;;;;6.23;71.06;102425.13;5211013;28;20045;-82
2022/01/30 10:18:45;;;;;;;1.55;1.55;;;;;;;6.21;71.34;102425.91;5163085;28;20482;-84
2022/01/30 10:21:22;;;;;;;3.42;1.45;;;;;;;6.26;71.99;102429.50;5185476;28;20517;-83
2022/01/30 10:24:16;;;;;;;0.73;0.73;;;;;;;6.35;71.91;102431.38;5209775;28;20045;-85
2022/01/30 10:27:20;;;;;;;0.70;0.70;;;;;;;6.37;69.94;102421.88;5217094;28;20100;-83
2022/01/30 10:30:18;;;;;;;3.03;2.28;;;;;;;6.29;69.63;102432.16;5200224;28;20041;-82
2022/01/30 10:32:59;;;;;;;0.52;0.52;;;;;;;6.46;69.97;102432.47;5193237;28;20041;-81
2022/01/30 10:35:48;;;;;;;2.40;2.15;;;;;;;6.32;69.65;102437.44;5186310;28;20149;-80
2022/01/30 10:38:32;;;;;;;0.93;0.93;;;;;;;6.37;68.94;102432.28;5188087;28;20051;-81
2022/01/30 10:41:15;;;;;;;1.85;1.48;;;;;;;6.38;69.75;102431.44;5201627;28;20029;-81
2022/01/30 10:44:05;;;;;;;1.45;1.20;;;;;;;6.29;67.16;102446.06;5234580;28;20455;-81
2022/01/30 10:46:41;;;;;;;0.75;0.75;;;;;;;6.42;68.99;102446.28;5193398;28;20052;-82
2022/01/30 10:49:39;;;;;;;1.45;1.13;;;;;;;6.27;67.97;102441.69;5210379;28;20037;-81
2022/01/30 10:52:13;;;;;;;0.50;0.50;;;;;;;6.31;68.33;102448.69;5250279;28;20109;-83
2022/01/30 10:54:51;;;;;;;3.80;1.88;;;;;;;6.28;67.64;102443.44;5200963;28;20032;-82
2022/01/30 11:06:15;;;;;;;2.85;1.80;;;;;;;6.35;66.46;102429.69;5172761;28;20030;-82
2022/01/30 11:08:50;;;;;;;0.57;0.57;;;;;;;6.36;66.45;102433.16;5205578;28;20102;-82
2022/01/30 11:14:19;;;;;;;1.00;0.85;;;;;;;6.30;64.21;102440.00;5210092;28;20041;-81
2022/01/30 11:17:34;;;;;;;0.35;0.35;;;;;;;6.41;64.88;102424.56;5181952;28;20051;-82
2022/01/30 11:20:12;;;;;;;0.40;0.40;;;;;;;6.44;64.37;102428.94;5204966;28;20476;-81
2022/01/30 11:22:46;;;;;;;1.30;1.30;;;;;;;6.43;63.14;102417.66;5188271;28;20055;-81
2022/01/30 11:25:21;;;;;;;0.88;0.88;;;;;;;6.48;64.27;102417.72;5190794;28;20037;-81
2022/01/30 11:27:54;;;;;;;0.70;0.70;;;;;;;6.56;64.24;102418.75;5217331;28;20041;-80
2022/01/30 11:30:25;;;;;;;3.70;3.00;;;;;;;6.60;64.04;102407.50;5194018;28;20147;-81
2022/01/30 11:32:57;;;;;;;1.25;1.23;;;;;;;6.48;61.38;102409.00;5224305;28;20096;-80
2022/01/30 11:35:28;;;;;;;2.20;2.10;;;;;;;6.52;62.06;102401.28;5206283;28;20591;-82
2022/01/30 11:37:59;;;;;;;7.90;2.85;;;;;;;6.56;62.15;102392.66;5218830;28;20040;-80
2022/01/30 11:40:31;;;;;;;10.05;3.15;;;;;;;6.64;62.94;102376.25;5193452;28;20026;-87
2022/01/30 11:43:08;;;;;;;0.80;0.80;;;;;;;6.59;59.30;102386.63;5205402;28;20515;-86
2022/01/30 11:45:39;;;;;;;1.02;0.93;;;;;;;6.65;58.96;102391.06;5221477;28;20061;-84
2022/01/30 11:48:12;;;;;;;2.28;1.13;;;;;;;6.73;60.64;102387.69;5180997;28;20055;-82
2022/01/30 11:50:45;;;;;;;3.55;2.35;;;;;;;6.69;60.27;102383.31;5235046;28;20075;-82
2022/01/30 11:53:31;;;;;;;0.82;0.82;;;;;;;6.82;60.49;102384.34;5197627;28;20036;-83
2022/01/30 11:56:11;;;;;;;0.70;0.70;;;;;;;6.85;60.37;102384.41;5205701;28;20233;-80
2022/01/30 11:58:49;;;;;;;0.43;0.43;;;;;;;6.68;60.09;102378.94;5207491;28;20064;-83
2022/01/30 12:01:35;;;;;;;3.92;2.35;;;;;;;6.72;60.12;102379.84;5211016;28;20055;-83
2022/01/30 12:04:13;;;;;;;1.90;1.80;;;;;;;6.75;58.93;102385.09;5198947;28;20274;-84
2022/01/30 12:06:46;;;;;;;4.60;1.60;;;;;;;6.86;59.59;102380.94;5189882;28;20029;-80
2022/01/30 12:09:27;;;;;;;0.63;0.63;;;;;;;6.73;58.97;102385.09;5209924;28;20264;-80
2022/01/30 12:11:59;;;;;;;0.55;0.55;;;;;;;6.63;57.18;102379.72;5227092;28;20524;-83
2022/01/30 12:14:44;;;;;;;1.00;1.00;;;;;;;6.74;57.16;102378.13;5195848;28;20071;-82
2022/01/30 12:18:05;;;;;;;0.43;0.43;;;;;;;6.81;58.95;102376.50;5207249;28;20037;-80
2022/01/30 12:21:33;;;;;;;1.85;1.75;;;;;;;6.74;58.05;102370.31;5176275;28;20067;-80
2022/01/30 12:24:27;;;;;;;0.60;0.60;;;;;;;6.91;57.03;102368.81;5206024;28;20599;-85
2022/01/30 12:27:02;;;;;;;0.77;0.77;;;;;;;6.85;57.02;102373.97;5223322;28;20036;-84
2022/01/30 12:29:46;;;;;;;3.67;2.00;;;;;;;6.92;56.49;102370.59;5222389;28;20040;-82
2022/01/30 12:32:20;;;;;;;1.35;0.93;;;;;;;6.90;55.38;102367.06;5224144;28;20032;-82
2022/01/30 12:34:57;;;;;;;2.25;2.05;;;;;;;6.93;56.00;102366.25;5203471;28;20041;-82
2022/01/30 12:37:38;;;;;;;4.70;2.35;;;;;;;6.99;57.10;102357.63;5184588;28;20101;-82
2022/01/30 12:40:09;;;;;;;1.27;1.25;;;;;;;7.12;56.18;102356.94;5191526;28;20082;-83
2022/01/30 12:42:42;;;;;;;3.00;1.95;;;;;;;7.10;56.80;102363.88;5189414;28;20033;-83
2022/01/30 12:45:15;;;;;;;0.52;0.52;;;;;;;7.14;58.92;102355.25;5199767;28;20152;-83
2022/01/30 12:47:45;;;;;;;3.10;2.22;;;;;;;7.14;56.39;102365.69;5204723;28;20156;-81
2022/01/30 12:50:17;;;;;;;0.82;0.82;;;;;;;7.12;54.29;102345.63;5201460;28;20128;-81
2022/01/30 12:52:51;;;;;;;0.50;0.50;;;;;;;7.19;56.99;102352.69;5220411;28;20041;-81
2022/01/30 12:55:22;;;;;;;1.88;1.42;;;;;;;7.17;56.29;102355.25;5205612;28;20616;-83
2022/01/30 12:57:54;;;;;;;2.78;2.10;;;;;;;7.16;55.47;102353.50;5235835;28;20064;-83
2022/01/30 13:00:25;;;;;;;0.40;0.40;;;;;;;7.18;56.34;102356.16;5207535;28;20667;-81
2022/01/30 13:03:01;;;;;;;0.50;0.50;;;;;;;7.25;57.07;102337.09;5221707;28;20086;-81
2022/01/30 13:05:33;;;;;;;0.75;0.75;;;;;;;7.39;57.43;102338.16;5187721;28;20571;-81
2022/01/30 13:08:04;;;;;;;0.90;0.90;;;;;;;7.43;56.97;102346.91;5221699;28;20102;-81
2022/01/30 13:10:40;;;;;;;1.52;1.02;;;;;;;7.61;57.25;102342.75;5242832;28;20060;-80
2022/01/30 13:13:10;;;;;;;0.50;0.50;;;;;;;7.55;57.85;102325.25;5181301;28;20083;-80
2022/01/30 13:15:41;;;;;;;0.82;0.82;;;;;;;7.54;57.31;102334.84;5187434;28;20043;-81
2022/01/30 13:18:11;;;;;;;2.60;1.35;;;;;;;7.60;58.11;102338.38;5222887;28;20511;-82
2022/01/30 13:20:42;;;;;;;1.13;1.08;;;;;;;7.75;54.91;102338.53;5206848;28;20071;-81
2022/01/30 13:23:13;;;;;;;1.40;1.30;;;;;;;7.75;56.54;102330.69;5223617;28;20041;-82
2022/01/30 13:25:47;;;;;;;0.55;0.55;;;;;;;7.73;54.98;102332.41;5250895;28;20079;-82
2022/01/30 13:28:36;;;;;;;2.08;1.88;;;;;;;7.85;56.35;102322.09;5242920;28;20044;-82
2022/01/30 13:31:13;;;;;;;0.45;0.45;;;;;;;7.62;54.06;102321.84;5237902;28;20035;-80
2022/01/30 13:33:44;;;;;;;1.23;0.98;;;;;;;7.81;54.39;102317.69;5191444;28;20108;-81
2022/01/30 13:36:30;;;;;;;0.70;0.70;;;;;;;7.86;54.11;102316.03;5201881;28;20229;-81
2022/01/30 13:39:37;;;;;;;5.03;2.13;;;;;;;7.80;53.55;102312.47;5172388;28;20047;-83
2022/01/30 13:48:34;;;;;;;2.00;1.38;;;;;;;7.96;55.01;102308.28;5222859;28;20045;-83
2022/01/30 13:51:06;;;;;;;0.60;0.60;;;;;;;7.92;55.66;102309.09;5220803;28;20045;-79
2022/01/30 13:53:40;;;;;;;8.27;2.40;;;;;;;7.83;56.12;102307.28;5210067;28;20051;-82
2022/01/30 13:56:17;;;;;;;10.07;1.95;;;;;;;8.06;57.32;102301.38;5201422;28;20040;-80
2022/01/30 13:58:51;;;;;;;1.30;1.13;;;;;;;7.96;56.00;102300.44;5215340;28;20066;-82
2022/01/30 14:01:30;;;;;;;1.58;1.42;;;;;;;7.92;57.22;102302.16;5212543;28;20029;-83